Time;durP1;ratioP1;P1;durP2;ratioP2;P2;SDS_P1;SDS_P2;PMS_P1;PMS_P2;Temp;Humidity;BMP_temperature;BMP_pressure;BME280_temperature;BME280_humidity;BME280_pressure;Samples;Min_cycle;Max_cycle;Signal;HPM_P1;HPM_P2
2021/01/22 00:00:21;;;;;;;8.00;7.60;;;10.30;99.90;;;;;;6096091;23;20560;-76
2021/01/22 00:02:48;;;;;;;7.93;7.47;;;10.30;99.90;;;;;;6097969;23;20170;-76
2021/01/22 00:05:14;;;;;;;8.00;7.50;;;10.30;99.90;;;;;;6097680;23;20182;-76
2021/01/22 00:07:41;;;;;;;8.67;8.07;;;10.30;99.90;;;;;;6098135;23;20174;-77
2021/01/22 00:10:08;;;;;;;7.87;7.47;;;10.40;99.90;;;;;;6095566;23;20174;-76
2021/01/22 00:12:35;;;;;;;8.03;7.63;;;10.40;99.90;;;;;;6097918;23;20170;-77
2021/01/22 00:15:02;;;;;;;7.90;7.50;;;10.30;99.90;;;;;;6098081;23;20162;-77
2021/01/22 00:17:29;;;;;;;8.17;7.67;;;10.30;99.90;;;;;;6098152;23;20415;-76
2021/01/22 00:19:55;;;;;;;8.10;7.60;;;10.20;99.90;;;;;;6096131;23;20177;-77
2021/01/22 00:22:21;;;;;;;8.20;7.70;;;10.10;99.90;;;;;;6095975;23;20198;-77
2021/01/22 00:24:47;;;;;;;7.77;7.37;;;10.10;99.90;;;;;;6096551;23;20229;-76
2021/01/22 00:27:14;;;;;;;7.57;7.17;;;10.10;99.90;;;;;;6096707;23;20182;-77
2021/01/22 00:29:40;;;;;;;7.70;7.30;;;10.00;99.90;;;;;;6096005;23;20513;-76
2021/01/22 00:32:07;;;;;;;7.90;7.40;;;10.00;99.90;;;;;;6096124;23;20202;-76
2021/01/22 00:34:33;;;;;;;8.50;7.90;;;10.00;99.90;;;;;;6098041;23;20166;-77
2021/01/22 00:37:00;;;;;;;7.80;7.40;;;10.00;99.90;;;;;;6096089;23;20189;-76
2021/01/22 00:39:26;;;;;;;7.90;7.50;;;10.00;99.90;;;;;;6097603;23;20171;-76
2021/01/22 00:41:52;;;;;;;7.90;7.40;;;10.00;99.90;;;;;;6097978;23;20190;-77
2021/01/22 00:44:19;;;;;;;7.77;7.37;;;10.00;99.90;;;;;;6096589;23;20830;-77
2021/01/22 00:46:45;;;;;;;8.83;8.23;;;9.90;99.90;;;;;;6098123;23;20806;-77
2021/01/22 00:49:12;;;;;;;8.13;7.63;;;9.90;99.90;;;;;;6095993;23;20213;-77
2021/01/22 00:51:38;;;;;;;8.20;7.70;;;9.90;99.90;;;;;;6099127;23;20677;-76
2021/01/22 00:54:05;;;;;;;8.03;7.63;;;9.90;99.90;;;;;;6098122;23;20174;-77
2021/01/22 00:56:47;;;;;;;7.87;7.47;;;9.90;99.90;;;;;;6098002;23;20625;-77
2021/01/22 00:59:13;;;;;;;8.10;7.60;;;9.80;99.90;;;;;;6098082;23;20253;-77
2021/01/22 01:01:43;;;;;;;7.83;7.43;;;9.80;99.90;;;;;;6122827;23;20198;-76
2021/01/22 01:04:09;;;;;;;7.90;7.50;;;9.70;99.90;;;;;;6098514;23;20188;-76
2021/01/22 01:06:53;;;;;;;8.10;7.70;;;9.70;99.90;;;;;;6098455;23;20206;-77
2021/01/22 01:09:19;;;;;;;8.20;7.70;;;9.60;99.90;;;;;;6098248;23;20182;-76
2021/01/22 01:12:07;;;;;;;7.70;7.30;;;9.60;99.90;;;;;;6099693;23;20688;-77
2021/01/22 01:14:51;;;;;;;8.17;7.67;;;9.60;99.90;;;;;;6100385;23;20172;-76
2021/01/22 01:17:30;;;;;;;8.00;7.60;;;9.70;99.90;;;;;;6097979;23;20177;-76
2021/01/22 01:19:56;;;;;;;8.00;7.50;;;9.70;99.90;;;;;;6098134;23;20173;-77
2021/01/22 01:22:23;;;;;;;8.10;7.70;;;9.60;99.90;;;;;;6097661;23;20664;-76
2021/01/22 01:24:49;;;;;;;7.87;7.47;;;9.70;99.90;;;;;;6097677;23;20265;-77
2021/01/22 01:27:16;;;;;;;8.00;7.60;;;9.60;99.90;;;;;;6099383;23;20173;-77
2021/01/22 01:29:42;;;;;;;7.63;7.23;;;9.60;99.90;;;;;;6098039;23;20181;-76
2021/01/22 01:32:08;;;;;;;7.83;7.40;;;9.60;99.90;;;;;;6099188;23;20190;-77
2021/01/22 01:34:34;;;;;;;7.40;7.00;;;9.60;99.90;;;;;;6097999;23;20502;-77
2021/01/22 01:37:01;;;;;;;7.50;7.07;;;9.70;99.90;;;;;;6099527;23;20193;-77
2021/01/22 01:39:28;;;;;;;7.37;6.97;;;9.70;99.90;;;;;;6099050;23;20223;-77
2021/01/22 01:41:54;;;;;;;7.63;7.23;;;9.60;99.90;;;;;;6098092;23;20197;-77
2021/01/22 01:44:20;;;;;;;7.53;7.13;;;9.60;99.90;;;;;;6099375;23;20194;-77
2021/01/22 01:46:47;;;;;;;7.50;7.10;;;9.60;99.90;;;;;;6097931;23;20236;-77
2021/01/22 01:49:13;;;;;;;7.63;7.23;;;9.60;99.90;;;;;;6098009;23;20561;-77
2021/01/22 01:51:40;;;;;;;7.57;7.07;;;9.60;99.90;;;;;;6098232;23;20205;-76
2021/01/22 01:54:07;;;;;;;7.70;7.30;;;9.60;99.90;;;;;;6098376;23;20525;-77
2021/01/22 01:56:34;;;;;;;7.47;7.07;;;9.60;99.90;;;;;;6098158;23;20181;-76
2021/01/22 01:59:01;;;;;;;7.93;7.37;;;9.60;99.90;;;;;;6099395;23;20173;-77
2021/01/22 02:01:27;;;;;;;8.00;7.33;;;9.60;99.90;;;;;;6097482;23;20507;-76
2021/01/22 02:03:56;;;;;;;8.00;7.50;;;9.60;99.90;;;;;;6099641;23;20790;-77
2021/01/22 02:06:23;;;;;;;8.20;7.70;;;9.60;99.90;;;;;;6097500;23;20582;-77
2021/01/22 02:08:49;;;;;;;8.37;7.87;;;9.60;99.90;;;;;;6097484;23;20686;-77
2021/01/22 02:11:16;;;;;;;7.90;7.37;;;9.70;99.90;;;;;;6099259;23;20249;-77
2021/01/22 02:13:46;;;;;;;8.50;7.73;;;9.70;99.90;;;;;;6099077;23;20173;-77
2021/01/22 02:16:13;;;;;;;8.17;7.57;;;9.80;99.90;;;;;;6099112;23;20221;-76
2021/01/22 02:18:43;;;;;;;8.27;7.70;;;9.90;99.90;;;;;;6098578;23;20174;-77
2021/01/22 02:21:17;;;;;;;8.70;7.80;;;10.00;99.90;;;;;;6097305;23;20673;-77
2021/01/22 02:23:46;;;;;;;8.50;7.90;;;10.00;99.90;;;;;;6098634;23;20225;-76
2021/01/22 02:26:57;;;;;;;8.13;7.63;;;9.90;99.90;;;;;;6096891;23;20190;-76
2021/01/22 02:29:24;;;;;;;8.10;7.50;;;9.90;99.90;;;;;;6084037;23;20513;-76
2021/01/22 02:31:54;;;;;;;7.83;7.30;;;9.90;99.90;;;;;;6096836;23;20202;-77
2021/01/22 02:34:23;;;;;;;8.43;7.70;;;10.00;99.90;;;;;;6097551;23;20514;-77
2021/01/22 02:36:51;;;;;;;8.70;8.00;;;10.00;99.90;;;;;;6099236;23;20558;-76
2021/01/22 02:39:22;;;;;;;7.80;7.30;;;10.00;99.90;;;;;;6097321;23;20178;-77
2021/01/22 02:41:49;;;;;;;8.97;7.63;;;10.00;99.90;;;;;;6099783;23;20190;-77
2021/01/22 02:44:17;;;;;;;8.40;7.80;;;10.00;99.90;;;;;;6099424;23;20181;-77
2021/01/22 02:46:45;;;;;;;8.33;7.60;;;10.00;99.90;;;;;;6098715;23;20202;-77
2021/01/22 02:49:11;;;;;;;8.27;7.67;;;10.00;99.90;;;;;;6096638;23;20174;-76
2021/01/22 02:51:37;;;;;;;8.20;7.50;;;10.00;99.90;;;;;;6097422;23;20744;-77
2021/01/22 02:54:04;;;;;;;8.20;7.60;;;10.00;99.90;;;;;;6098887;23;20614;-77
2021/01/22 02:56:41;;;;;;;8.17;7.67;;;10.00;99.90;;;;;;6098437;23;20162;-76
2021/01/22 02:59:18;;;;;;;8.33;7.50;;;10.00;99.90;;;;;;6098202;23;20154;-77
2021/01/22 03:01:56;;;;;;;8.33;7.53;;;10.00;99.90;;;;;;6096780;23;20196;-76
2021/01/22 03:04:26;;;;;;;8.10;7.40;;;9.90;99.90;;;;;;6099032;23;20159;-77
2021/01/22 03:06:54;;;;;;;7.73;6.90;;;9.90;99.90;;;;;;6097137;23;20191;-77
2021/01/22 03:09:23;;;;;;;7.77;7.20;;;9.90;99.90;;;;;;6098536;23;20172;-77
2021/01/22 03:11:51;;;;;;;7.90;7.13;;;9.80;99.90;;;;;;6097183;23;20198;-76
2021/01/22 03:14:19;;;;;;;7.90;7.30;;;9.80;99.90;;;;;;6098319;23;20652;-76
2021/01/22 03:16:48;;;;;;;8.77;8.07;;;9.80;99.90;;;;;;6098464;23;20651;-77
2021/01/22 03:19:15;;;;;;;7.37;6.87;;;9.70;99.90;;;;;;6096802;23;20178;-77
2021/01/22 03:21:41;;;;;;;8.17;7.60;;;9.70;99.90;;;;;;6097886;23;20190;-77
2021/01/22 03:24:08;;;;;;;8.50;7.80;;;9.60;99.90;;;;;;6096314;23;20185;-77
2021/01/22 03:26:34;;;;;;;8.50;7.80;;;9.50;99.90;;;;;;6096432;23;20653;-76
2021/01/22 03:29:00;;;;;;;8.10;7.50;;;9.50;99.90;;;;;;6096263;23;20739;-77
2021/01/22 03:31:27;;;;;;;8.30;7.70;;;9.40;99.90;;;;;;6096533;23;20229;-76
2021/01/22 03:33:54;;;;;;;8.70;8.00;;;9.40;99.90;;;;;;6097124;23;20227;-76
2021/01/22 03:36:20;;;;;;;8.40;7.80;;;9.40;99.90;;;;;;6097933;23;20217;-77
2021/01/22 03:38:47;;;;;;;8.40;7.90;;;9.40;99.90;;;;;;6096493;23;20182;-77
2021/01/22 03:41:13;;;;;;;8.50;7.70;;;9.40;99.90;;;;;;6096144;23;20194;-76
2021/01/22 03:43:39;;;;;;;8.17;7.47;;;9.40;99.90;;;;;;6096329;23;20229;-77
2021/01/22 03:46:06;;;;;;;7.73;7.33;;;9.40;99.90;;;;;;6097939;23;20529;-77
2021/01/22 03:48:32;;;;;;;9.30;8.57;;;9.30;99.90;;;;;;6097407;23;20170;-76
2021/01/22 03:51:01;;;;;;;8.10;7.50;;;9.30;99.90;;;;;;6094366;23;20194;-78
2021/01/22 03:53:28;;;;;;;8.27;7.67;;;9.50;99.90;;;;;;6096513;23;20193;-76
2021/01/22 03:55:54;;;;;;;8.40;7.90;;;9.50;99.90;;;;;;6094298;23;20227;-81
2021/01/22 03:58:21;;;;;;;8.03;7.53;;;9.60;99.90;;;;;;6094046;23;20208;-79
2021/01/22 04:00:47;;;;;;;8.73;8.17;;;9.60;99.90;;;;;;6094691;23;20257;-78
2021/01/22 04:03:13;;;;;;;8.03;7.50;;;10.10;99.90;;;;;;6094554;23;20587;-78
2021/01/22 04:05:40;;;;;;;8.17;7.60;;;9.80;99.90;;;;;;6096226;23;20182;-78
2021/01/22 04:08:07;;;;;;;8.23;7.67;;;9.70;99.90;;;;;;6094255;23;20174;-79
2021/01/22 04:10:33;;;;;;;8.00;7.40;;;9.50;99.90;;;;;;6094880;23;20185;-78
2021/01/22 04:12:59;;;;;;;8.20;7.60;;;9.30;99.90;;;;;;6094068;23;20644;-78
2021/01/22 04:15:26;;;;;;;8.50;7.97;;;9.20;99.90;;;;;;6093757;23;20174;-78
2021/01/22 04:17:52;;;;;;;8.73;7.90;;;9.20;99.90;;;;;;6095243;23;20225;-78
2021/01/22 04:20:21;;;;;;;8.40;7.60;;;9.10;99.90;;;;;;6093725;23;20178;-79
2021/01/22 04:22:49;;;;;;;8.17;7.53;;;9.00;99.90;;;;;;6094159;23;20213;-77
2021/01/22 04:25:17;;;;;;;8.40;7.60;;;8.90;99.90;;;;;;6096497;23;20599;-78
2021/01/22 04:27:43;;;;;;;7.60;7.20;;;8.80;99.90;;;;;;6096294;23;20574;-78
2021/01/22 04:30:11;;;;;;;7.70;7.23;;;8.80;99.90;;;;;;6095920;23;20170;-77
2021/01/22 04:32:37;;;;;;;8.40;7.60;;;8.70;99.90;;;;;;6098172;23;20225;-77
2021/01/22 04:35:04;;;;;;;8.13;7.53;;;8.70;99.90;;;;;;6098674;23;20192;-77
2021/01/22 04:37:31;;;;;;;7.80;7.37;;;8.70;99.90;;;;;;6121030;23;20241;-78
2021/01/22 04:39:57;;;;;;;7.60;7.10;;;8.70;99.90;;;;;;6096973;23;20520;-75
2021/01/22 04:42:24;;;;;;;7.83;7.30;;;8.70;99.90;;;;;;6095986;23;20202;-76
2021/01/22 04:44:50;;;;;;;7.90;7.20;;;8.80;99.90;;;;;;6097325;23;20177;-76
2021/01/22 04:47:17;;;;;;;7.83;7.30;;;8.80;99.90;;;;;;6098088;23;20202;-76
2021/01/22 04:49:48;;;;;;;7.80;7.37;;;8.80;99.90;;;;;;6098954;23;20566;-75
2021/01/22 04:52:16;;;;;;;7.47;7.07;;;8.80;99.90;;;;;;6097425;23;20249;-76
2021/01/22 04:54:44;;;;;;;7.80;7.30;;;8.80;99.90;;;;;;6097261;23;20178;-75
2021/01/22 04:57:12;;;;;;;7.80;7.40;;;8.80;99.90;;;;;;6098788;23;20169;-76
2021/01/22 04:59:48;;;;;;;7.73;7.23;;;8.80;99.90;;;;;;6098704;23;20169;-76
2021/01/22 05:02:14;;;;;;;7.50;7.10;;;8.80;99.90;;;;;;6097828;23;20193;-76
2021/01/22 05:04:41;;;;;;;7.13;6.73;;;8.90;99.90;;;;;;6099050;23;20170;-76
2021/01/22 05:07:08;;;;;;;7.37;6.97;;;8.90;99.90;;;;;;6098583;23;20189;-76
2021/01/22 05:09:34;;;;;;;7.40;6.97;;;8.90;99.90;;;;;;6096812;23;20177;-76
2021/01/22 05:12:00;;;;;;;7.13;6.80;;;8.90;99.90;;;;;;6097176;23;20208;-76
2021/01/22 05:14:27;;;;;;;7.57;7.07;;;8.90;99.90;;;;;;6099434;23;20173;-76
2021/01/22 05:17:05;;;;;;;7.90;7.47;;;8.80;99.90;;;;;;6097620;23;20169;-76
2021/01/22 05:19:33;;;;;;;7.73;7.33;;;8.80;99.90;;;;;;6099254;23;20539;-75
2021/01/22 05:22:01;;;;;;;8.07;7.67;;;8.80;99.90;;;;;;6097755;23;20661;-76
2021/01/22 05:24:29;;;;;;;7.90;7.40;;;8.80;99.90;;;;;;6099333;23;20189;-75
2021/01/22 05:27:00;;;;;;;8.20;7.70;;;8.80;99.90;;;;;;6099410;23;20265;-76
2021/01/22 05:29:27;;;;;;;7.97;7.47;;;8.70;99.90;;;;;;6099489;23;20181;-76
2021/01/22 05:31:53;;;;;;;7.57;7.13;;;8.70;99.90;;;;;;6100069;23;20249;-75
2021/01/22 05:34:21;;;;;;;8.30;7.80;;;8.70;99.90;;;;;;6099971;23;20177;-75
2021/01/22 05:36:48;;;;;;;8.10;7.50;;;8.70;99.90;;;;;;6098778;23;20169;-76
2021/01/22 05:39:20;;;;;;;8.27;7.73;;;8.70;99.90;;;;;;6097699;23;20248;-76
2021/01/22 05:41:54;;;;;;;8.60;8.00;;;8.70;99.90;;;;;;6097653;23;20220;-76
2021/01/22 05:44:22;;;;;;;8.33;7.83;;;8.70;99.90;;;;;;6098366;23;20200;-76
2021/01/22 05:47:03;;;;;;;8.83;8.30;;;8.80;99.90;;;;;;6098059;23;20193;-76
2021/01/22 05:49:30;;;;;;;8.53;8.10;;;8.80;99.90;;;;;;6097830;23;20184;-75
2021/01/22 05:51:57;;;;;;;9.17;8.50;;;8.90;99.90;;;;;;6098323;23;20729;-76
2021/01/22 05:54:41;;;;;;;8.70;8.10;;;8.90;99.90;;;;;;6098149;23;20185;-75
2021/01/22 05:57:07;;;;;;;9.07;8.40;;;8.90;99.90;;;;;;6097931;23;20170;-76
2021/01/22 05:59:33;;;;;;;8.57;8.07;;;8.80;99.90;;;;;;6097480;23;20524;-75
2021/01/22 06:01:59;;;;;;;8.60;8.10;;;8.80;99.90;;;;;;6097724;23;20197;-75
2021/01/22 06:04:26;;;;;;;8.50;7.83;;;8.70;99.90;;;;;;6097175;23;20200;-76
2021/01/22 06:06:54;;;;;;;9.03;8.33;;;8.80;99.90;;;;;;6098889;23;20224;-76
2021/01/22 06:09:34;;;;;;;8.67;8.07;;;8.80;99.90;;;;;;6097517;23;20172;-76
2021/01/22 06:12:02;;;;;;;8.90;8.40;;;8.80;99.90;;;;;;6095926;23;20212;-76
2021/01/22 06:14:34;;;;;;;8.40;7.90;;;8.70;99.90;;;;;;6096915;23;20204;-75
2021/01/22 06:17:05;;;;;;;9.50;8.70;;;8.70;99.90;;;;;;6096125;23;20215;-76
2021/01/22 06:19:37;;;;;;;9.20;8.60;;;8.70;99.90;;;;;;6097600;23;20185;-76
2021/01/22 06:22:11;;;;;;;9.43;8.73;;;8.70;99.90;;;;;;6096435;23;20686;-76
2021/01/22 06:24:38;;;;;;;9.03;8.30;;;8.70;99.90;;;;;;6098854;23;20156;-76
2021/01/22 06:27:07;;;;;;;9.00;8.40;;;8.70;99.90;;;;;;6099016;23;20186;-75
2021/01/22 06:29:34;;;;;;;8.77;8.27;;;8.70;99.90;;;;;;6098102;23;20181;-76
2021/01/22 06:32:02;;;;;;;8.73;8.23;;;8.80;99.90;;;;;;6098815;23;20665;-75
2021/01/22 06:34:31;;;;;;;8.70;8.20;;;8.90;99.90;;;;;;6099321;23;20184;-77
2021/01/22 06:36:58;;;;;;;8.70;8.20;;;8.90;99.90;;;;;;6097638;23;20213;-76
2021/01/22 06:39:26;;;;;;;9.13;8.40;;;8.80;99.90;;;;;;6096328;23;20189;-76
2021/01/22 06:41:54;;;;;;;9.23;8.53;;;8.80;99.90;;;;;;6097720;23;20218;-76
2021/01/22 06:44:20;;;;;;;9.00;8.47;;;8.80;99.90;;;;;;6096766;23;20529;-76
2021/01/22 06:46:46;;;;;;;9.07;8.37;;;8.80;99.90;;;;;;6098221;23;20182;-76
2021/01/22 06:49:13;;;;;;;9.20;8.50;;;8.80;99.90;;;;;;6096200;23;20173;-75
2021/01/22 06:51:39;;;;;;;9.40;8.80;;;8.80;99.90;;;;;;6096582;23;20512;-75
2021/01/22 06:54:07;;;;;;;9.10;8.50;;;8.80;99.90;;;;;;6096984;23;20185;-76
2021/01/22 06:56:35;;;;;;;10.07;9.10;;;8.80;99.90;;;;;;6098695;23;20642;-76
2021/01/22 06:59:37;;;;;;;9.00;8.50;;;8.80;99.90;;;;;;6098433;23;20174;-76
2021/01/22 07:02:24;;;;;;;9.20;8.40;;;8.70;99.90;;;;;;6096474;23;20197;-76
2021/01/22 07:04:50;;;;;;;8.80;8.30;;;8.80;99.90;;;;;;6097136;23;20252;-75
2021/01/22 07:07:47;;;;;;;8.80;8.20;;;8.80;99.90;;;;;;6097105;23;20197;-75
2021/01/22 07:10:14;;;;;;;8.97;8.47;;;8.80;99.90;;;;;;6096500;23;20196;-75
2021/01/22 07:12:42;;;;;;;8.70;8.20;;;8.80;99.90;;;;;;6096874;23;20241;-76
2021/01/22 07:15:29;;;;;;;9.53;8.87;;;8.90;99.90;;;;;;6097138;23;20203;-76
2021/01/22 07:17:57;;;;;;;8.70;8.00;;;8.90;99.90;;;;;;6096538;23;20198;-75
2021/01/22 07:20:23;;;;;;;8.80;8.10;;;9.00;99.90;;;;;;6095868;23;20182;-76
2021/01/22 07:22:51;;;;;;;8.53;7.87;;;9.00;99.90;;;;;;6098407;23;20248;-76
2021/01/22 07:25:29;;;;;;;8.70;8.00;;;9.00;99.90;;;;;;6098051;23;20197;-76
2021/01/22 07:27:56;;;;;;;8.50;7.73;;;9.00;99.90;;;;;;6096456;23;20189;-76
2021/01/22 07:30:24;;;;;;;9.60;8.80;;;9.00;99.90;;;;;;6096688;23;20609;-76
2021/01/22 07:32:51;;;;;;;8.30;7.80;;;9.10;99.90;;;;;;6096215;23;20182;-76
2021/01/22 07:35:22;;;;;;;8.80;8.10;;;9.10;99.90;;;;;;6097522;23;20169;-75
2021/01/22 07:37:49;;;;;;;8.97;7.73;;;9.10;99.90;;;;;;6096270;23;20559;-75
2021/01/22 07:40:16;;;;;;;7.90;7.40;;;9.10;99.90;;;;;;6097731;23;20169;-76
2021/01/22 07:42:43;;;;;;;7.83;7.33;;;9.10;99.90;;;;;;6096504;23;20206;-75
2021/01/22 07:45:13;;;;;;;7.70;7.20;;;9.20;99.90;;;;;;6096424;23;20176;-76
2021/01/22 07:47:40;;;;;;;7.60;7.10;;;9.20;99.90;;;;;;6097728;23;20176;-75
2021/01/22 07:50:09;;;;;;;7.60;7.10;;;9.30;99.90;;;;;;6097786;23;20629;-76
2021/01/22 07:52:36;;;;;;;7.70;7.30;;;9.30;99.90;;;;;;6097990;23;20546;-76
2021/01/22 07:55:05;;;;;;;7.87;7.33;;;9.30;99.90;;;;;;6096202;23;20524;-76
2021/01/22 07:57:31;;;;;;;8.10;7.50;;;9.40;99.90;;;;;;6096023;23;20224;-76
2021/01/22 08:00:06;;;;;;;8.17;7.60;;;9.50;99.90;;;;;;6097320;23;20174;-76
2021/01/22 08:02:39;;;;;;;8.20;7.70;;;9.60;99.90;;;;;;6097792;23;20241;-75
2021/01/22 08:05:08;;;;;;;8.23;7.60;;;9.70;99.90;;;;;;6096066;23;20181;-75
2021/01/22 08:07:37;;;;;;;7.80;7.40;;;9.90;99.90;;;;;;6098210;23;20513;-75
2021/01/22 08:10:06;;;;;;;7.30;6.90;;;10.10;99.90;;;;;;6097060;23;20613;-76
2021/01/22 08:12:32;;;;;;;1.90;1.80;;;10.30;99.90;;;;;;6097753;23;20166;-75
2021/01/22 08:15:00;;;;;;;4.00;1.90;;;10.60;99.90;;;;;;6097787;23;20170;-76
2021/01/22 08:17:26;;;;;;;2.63;2.53;;;10.80;99.90;;;;;;6097924;23;20166;-76
2021/01/22 08:19:54;;;;;;;7.90;7.40;;;11.10;99.90;;;;;;6097271;23;20177;-76
2021/01/22 08:22:21;;;;;;;8.20;7.50;;;11.30;99.90;;;;;;6096029;23;20209;-76
2021/01/22 08:24:49;;;;;;;7.97;7.57;;;11.50;99.90;;;;;;6096359;23;20193;-76
2021/01/22 08:27:15;;;;;;;7.87;7.47;;;11.60;99.90;;;;;;6097985;23;20237;-75
2021/01/22 08:29:43;;;;;;;8.20;7.70;;;11.90;99.90;;;;;;6095754;23;20229;-76
2021/01/22 08:32:11;;;;;;;8.53;8.03;;;12.20;99.90;;;;;;6097418;23;20189;-76
2021/01/22 08:34:38;;;;;;;8.27;7.77;;;12.40;99.90;;;;;;6096345;23;20263;-76
2021/01/22 08:37:08;;;;;;;8.60;8.00;;;12.60;99.90;;;;;;6098646;23;20506;-76
2021/01/22 08:39:48;;;;;;;8.27;7.77;;;12.70;99.90;;;;;;6098140;23;20175;-76
2021/01/22 08:42:14;;;;;;;8.37;7.87;;;13.00;99.90;;;;;;6097967;23;20195;-76
2021/01/22 08:44:54;;;;;;;8.40;7.80;;;13.10;99.90;;;;;;6096649;23;20192;-76
2021/01/22 08:47:21;;;;;;;8.50;7.90;;;13.10;99.90;;;;;;6096594;23;20195;-76
2021/01/22 08:49:55;;;;;;;8.90;8.40;;;13.00;99.90;;;;;;6096771;23;20211;-76
2021/01/22 08:52:22;;;;;;;8.70;8.20;;;13.10;99.90;;;;;;6096679;23;20205;-76
2021/01/22 08:54:51;;;;;;;8.30;7.80;;;13.20;99.90;;;;;;6098590;23;20166;-75
2021/01/22 08:57:18;;;;;;;8.03;7.53;;;13.10;99.90;;;;;;6098293;23;20168;-76
2021/01/22 08:59:52;;;;;;;8.10;7.50;;;12.90;99.90;;;;;;6096794;23;20188;-77
2021/01/22 09:02:35;;;;;;;8.60;8.10;;;12.70;99.90;;;;;;6096152;23;20222;-75
2021/01/22 09:05:07;;;;;;;8.40;7.80;;;12.40;99.90;;;;;;6097015;23;20179;-76
2021/01/22 09:07:34;;;;;;;7.70;7.30;;;12.30;99.90;;;;;;6096504;23;20196;-76
2021/01/22 09:10:01;;;;;;;7.83;7.43;;;12.20;99.90;;;;;;6097825;23;20172;-76
2021/01/22 09:12:29;;;;;;;7.90;7.40;;;12.10;99.90;;;;;;6097647;23;20195;-76
2021/01/22 09:14:59;;;;;;;8.43;7.83;;;12.10;99.90;;;;;;6099940;23;20510;-76
2021/01/22 09:17:27;;;;;;;8.00;7.40;;;12.00;99.90;;;;;;6099122;23;20509;-75
2021/01/22 09:19:58;;;;;;;8.23;7.73;;;12.00;99.90;;;;;;6097718;23;20178;-76
2021/01/22 09:22:25;;;;;;;8.10;7.50;;;12.00;99.90;;;;;;6097713;23;20205;-76
2021/01/22 09:24:53;;;;;;;8.00;7.50;;;12.00;99.90;;;;;;6098407;23;20175;-77
2021/01/22 09:27:19;;;;;;;7.77;7.27;;;12.20;99.90;;;;;;6099686;23;20251;-75
2021/01/22 09:29:46;;;;;;;7.60;7.20;;;12.20;99.90;;;;;;6099934;23;20176;-76
2021/01/22 09:32:12;;;;;;;8.13;7.40;;;12.30;99.90;;;;;;6099908;23;20182;-76
2021/01/22 09:34:38;;;;;;;7.60;7.20;;;12.40;99.90;;;;;;6099513;23;20648;-76
2021/01/22 09:37:05;;;;;;;8.10;7.60;;;12.50;99.90;;;;;;6098481;23;20175;-76
2021/01/22 09:39:31;;;;;;;8.03;7.40;;;12.60;99.90;;;;;;6097843;23;20186;-75
2021/01/22 09:41:58;;;;;;;7.50;7.10;;;12.60;99.90;;;;;;6098450;23;20233;-75
2021/01/22 09:44:24;;;;;;;7.73;7.33;;;12.70;99.90;;;;;;6099759;23;20168;-75
2021/01/22 09:46:51;;;;;;;8.37;7.67;;;12.80;99.90;;;;;;6099558;23;20190;-76
2021/01/22 09:49:17;;;;;;;8.03;7.53;;;12.80;99.90;;;;;;6098758;23;20659;-75
2021/01/22 09:51:43;;;;;;;8.30;7.80;;;12.90;99.90;;;;;;6099992;23;20214;-77
2021/01/22 09:54:10;;;;;;;8.10;7.50;;;13.00;99.90;;;;;;6097950;23;20177;-76
2021/01/22 09:56:36;;;;;;;7.97;7.33;;;13.00;99.90;;;;;;6097904;23;20175;-76
2021/01/22 09:59:06;;;;;;;8.33;7.73;;;13.10;99.90;;;;;;6098193;23;20177;-76
2021/01/22 10:01:33;;;;;;;7.70;7.20;;;13.20;99.90;;;;;;6099341;23;20188;-76
2021/01/22 10:03:59;;;;;;;8.50;7.90;;;13.20;99.90;;;;;;6097227;23;20180;-76
2021/01/22 10:06:25;;;;;;;7.93;7.43;;;13.30;99.90;;;;;;6097151;23;20199;-76
2021/01/22 10:08:52;;;;;;;7.97;7.47;;;13.30;99.90;;;;;;6098175;23;20177;-76
2021/01/22 10:11:18;;;;;;;7.80;7.30;;;13.30;99.90;;;;;;6099692;23;20192;-76
2021/01/22 10:13:44;;;;;;;8.00;7.50;;;13.30;99.90;;;;;;6099511;23;20512;-76
2021/01/22 10:16:11;;;;;;;7.70;7.30;;;13.30;99.90;;;;;;6099775;23;20171;-76
2021/01/22 10:18:38;;;;;;;8.10;7.40;;;13.10;99.90;;;;;;6098188;23;20564;-76
2021/01/22 10:21:04;;;;;;;8.00;7.60;;;13.00;99.90;;;;;;6097082;23;20222;-75
2021/01/22 10:23:30;;;;;;;8.17;7.60;;;13.10;99.90;;;;;;6097222;23;20188;-76
2021/01/22 10:25:57;;;;;;;8.00;7.53;;;13.10;99.90;;;;;;6097649;23;20192;-76
2021/01/22 10:28:24;;;;;;;8.17;7.67;;;13.10;99.90;;;;;;6097029;23;20188;-76
2021/01/22 10:30:51;;;;;;;7.80;7.33;;;13.20;99.90;;;;;;6098372;23;20231;-75
2021/01/22 10:33:18;;;;;;;7.50;7.10;;;13.20;99.90;;;;;;6099421;23;20164;-76
2021/01/22 10:35:44;;;;;;;7.73;7.23;;;13.20;99.90;;;;;;6098203;23;20548;-76
2021/01/22 10:38:11;;;;;;;8.13;7.63;;;13.20;99.90;;;;;;6099348;23;20174;-76
2021/01/22 10:40:38;;;;;;;8.30;7.70;;;13.20;99.90;;;;;;6097725;23;20196;-76
2021/01/22 10:43:04;;;;;;;8.70;8.20;;;13.20;99.90;;;;;;6097589;23;20316;-75
2021/01/22 10:45:30;;;;;;;7.93;7.40;;;13.30;99.90;;;;;;6097526;23;20518;-76
2021/01/22 10:47:56;;;;;;;8.20;7.60;;;13.40;99.90;;;;;;6099131;23;20197;-76
2021/01/22 10:50:24;;;;;;;7.87;7.37;;;13.50;99.90;;;;;;6097143;23;20177;-76
2021/01/22 10:52:50;;;;;;;7.90;7.50;;;13.50;99.90;;;;;;6098188;23;20178;-76
2021/01/22 10:55:16;;;;;;;8.27;7.77;;;13.50;99.90;;;;;;6097456;23;20181;-76
2021/01/22 10:57:43;;;;;;;8.23;7.73;;;13.60;99.90;;;;;;6099387;23;20222;-76
2021/01/22 11:00:10;;;;;;;7.90;7.40;;;13.60;99.90;;;;;;6097376;23;20204;-76
2021/01/22 11:02:36;;;;;;;8.00;7.50;;;13.60;99.90;;;;;;6097068;23;20565;-77
2021/01/22 11:05:03;;;;;;;7.33;6.93;;;13.70;99.90;;;;;;6098637;23;20173;-76
2021/01/22 11:07:30;;;;;;;7.50;7.10;;;13.80;99.90;;;;;;6097392;23;20193;-75
2021/01/22 11:09:56;;;;;;;7.70;7.30;;;13.90;99.90;;;;;;6098266;23;20650;-75
2021/01/22 11:12:23;;;;;;;7.60;7.20;;;14.00;99.90;;;;;;6097113;23;20212;-76
2021/01/22 11:14:49;;;;;;;7.33;6.93;;;14.00;99.90;;;;;;6099415;23;20177;-75
2021/01/22 11:17:15;;;;;;;7.50;7.07;;;14.10;99.90;;;;;;6097867;23;20175;-75
2021/01/22 11:19:41;;;;;;;7.60;7.00;;;14.20;99.90;;;;;;6096407;23;20177;-76
2021/01/22 11:22:08;;;;;;;7.67;7.17;;;14.20;99.90;;;;;;6099448;23;20199;-76
2021/01/22 11:24:35;;;;;;;7.20;6.80;;;14.30;99.90;;;;;;6097471;23;20188;-76
2021/01/22 11:27:02;;;;;;;7.30;6.90;;;14.30;99.90;;;;;;6096889;23;20189;-77
2021/01/22 11:29:28;;;;;;;6.97;6.47;;;14.40;99.90;;;;;;6097865;23;20181;-75
2021/01/22 11:31:54;;;;;;;7.40;6.90;;;14.50;99.90;;;;;;6097650;23;20197;-76
2021/01/22 11:34:21;;;;;;;7.30;6.80;;;14.40;99.90;;;;;;6097177;23;20182;-76
2021/01/22 11:36:47;;;;;;;7.40;7.00;;;14.50;99.90;;;;;;6096279;23;20170;-76
2021/01/22 11:39:13;;;;;;;7.27;6.87;;;14.50;99.90;;;;;;6097960;23;20192;-76
2021/01/22 11:41:40;;;;;;;7.53;7.00;;;14.60;99.90;;;;;;6097009;23;20202;-75
2021/01/22 11:44:09;;;;;;;7.60;7.20;;;14.60;99.90;;;;;;6098122;23;20241;-77
2021/01/22 11:46:36;;;;;;;7.77;7.27;;;14.60;99.90;;;;;;6096529;23;20200;-76
2021/01/22 11:49:02;;;;;;;7.37;6.97;;;14.70;99.90;;;;;;6098245;23;20570;-76
2021/01/22 11:51:28;;;;;;;7.40;6.90;;;14.80;99.90;;;;;;6097430;23;20585;-76
2021/01/22 11:53:54;;;;;;;7.30;6.90;;;14.90;99.90;;;;;;6097579;23;20181;-76
2021/01/22 11:56:21;;;;;;;7.37;6.97;;;15.00;99.90;;;;;;6098535;23;20171;-76
2021/01/22 11:58:48;;;;;;;7.17;6.77;;;15.00;99.90;;;;;;6098898;23;20167;-76
2021/01/22 12:01:15;;;;;;;8.17;7.53;;;15.00;99.90;;;;;;6097346;23;20198;-76
2021/01/22 12:03:41;;;;;;;7.97;7.47;;;15.00;99.90;;;;;;6097232;23;20182;-76
2021/01/22 12:06:07;;;;;;;8.20;7.50;;;15.00;99.90;;;;;;6096417;23;20198;-76
2021/01/22 12:08:33;;;;;;;7.70;7.20;;;15.00;99.90;;;;;;6096685;23;20178;-76
2021/01/22 12:11:00;;;;;;;8.10;7.47;;;14.90;99.90;;;;;;6097335;23;20589;-77
2021/01/22 12:13:26;;;;;;;7.33;6.93;;;14.90;99.90;;;;;;6098252;23;20170;-76
2021/01/22 12:15:53;;;;;;;7.43;7.03;;;14.70;99.90;;;;;;6098523;23;20649;-76
2021/01/22 12:18:19;;;;;;;7.60;7.20;;;14.70;99.90;;;;;;6096658;23;20189;-76
2021/01/22 12:20:46;;;;;;;8.10;7.50;;;14.70;99.90;;;;;;6097367;23;20253;-76
2021/01/22 12:23:13;;;;;;;7.60;7.20;;;14.70;99.90;;;;;;6099162;23;20167;-77
2021/01/22 12:25:45;;;;;;;7.30;6.90;;;14.80;99.90;;;;;;6099301;23;20217;-77
2021/01/22 12:28:11;;;;;;;7.70;7.20;;;14.80;99.90;;;;;;6096916;23;20190;-76
2021/01/22 12:30:37;;;;;;;6.97;6.57;;;14.90;99.90;;;;;;6098238;23;20237;-76
2021/01/22 12:33:05;;;;;;;7.30;6.60;;;15.00;99.90;;;;;;6097493;23;20194;-76
2021/01/22 12:35:31;;;;;;;7.63;7.13;;;15.10;99.90;;;;;;6099495;23;20503;-76
2021/01/22 12:37:58;;;;;;;8.17;7.57;;;15.10;99.90;;;;;;6099931;23;20190;-77
2021/01/22 12:40:24;;;;;;;7.57;7.07;;;15.20;99.90;;;;;;6097258;23;20202;-76
2021/01/22 12:42:51;;;;;;;7.70;7.20;;;15.20;99.90;;;;;;6100156;23;20637;-77
2021/01/22 12:45:18;;;;;;;7.53;7.03;;;15.00;99.90;;;;;;6096998;23;20177;-76
2021/01/22 12:47:45;;;;;;;7.57;7.07;;;14.90;99.90;;;;;;6100314;23;20173;-76
2021/01/22 12:50:12;;;;;;;7.47;6.90;;;14.70;99.90;;;;;;6099944;23;20171;-76
2021/01/22 12:52:39;;;;;;;7.10;6.70;;;14.50;99.90;;;;;;6122814;23;20516;-76
2021/01/22 12:55:06;;;;;;;7.70;6.90;;;14.40;99.90;;;;;;6098878;23;20179;-76
2021/01/22 12:57:33;;;;;;;6.93;6.53;;;14.30;99.90;;;;;;6098378;23;20193;-75